createdAt,value
2023-05-19T00:02:05.597Z,73.31
2023-05-19T00:04:33.578Z,73.42
2023-05-19T00:07:01.917Z,73.08
2023-05-19T00:09:28.849Z,72.57
2023-05-19T00:11:56.816Z,72.51
2023-05-19T00:14:23.710Z,73.65
2023-05-19T00:16:50.843Z,72.65
2023-05-19T00:19:17.759Z,74.32
2023-05-19T00:21:47.707Z,74.55
2023-05-19T00:24:14.431Z,75.09
2023-05-19T00:26:41.011Z,74.78
2023-05-19T00:29:07.553Z,75.04
2023-05-19T00:31:34.545Z,74.12
2023-05-19T00:34:01.519Z,74.89
2023-05-19T00:36:28.422Z,74.77
2023-05-19T00:38:55.101Z,74.12
2023-05-19T00:41:22.740Z,76.03
2023-05-19T00:43:50.737Z,75.39
2023-05-19T00:46:19.201Z,77.71
2023-05-19T00:48:46.054Z,76.28
2023-05-19T00:51:17.144Z,75.43
2023-05-19T00:53:49.103Z,75.88
2023-05-19T00:56:17.031Z,76.39
2023-05-19T00:58:44.450Z,76.87
2023-05-19T01:01:12.314Z,77.86
2023-05-19T01:03:40.797Z,78.49
2023-05-19T01:06:08.089Z,78.99
2023-05-19T01:08:37.553Z,78.34
2023-05-19T01:11:08.324Z,78.19
2023-05-19T01:13:36.521Z,78.07
2023-05-19T01:16:30.870Z,79.71
2023-05-19T01:19:03.951Z,77.59
2023-05-19T01:21:56.776Z,79.32
2023-05-19T01:24:45.364Z,79.36
2023-05-19T01:27:32.466Z,78.96
2023-05-19T01:30:30.817Z,80.25
2023-05-19T01:33:02.642Z,80.75
2023-05-19T01:35:30.793Z,80.63
2023-05-19T01:37:59.327Z,79.75
2023-05-19T01:40:28.286Z,79.19
2023-05-19T01:42:58.164Z,78.58
2023-05-19T01:45:26.109Z,78.79
2023-05-19T01:47:56.129Z,81.12
2023-05-19T01:50:22.812Z,80.18
2023-05-19T01:52:49.669Z,79.40
2023-05-19T01:55:16.452Z,79.50
2023-05-19T01:57:55.617Z,81.20
2023-05-19T02:00:39.194Z,79.14
2023-05-19T02:03:21.044Z,79.79
2023-05-19T02:06:03.824Z,80.44
2023-05-19T02:08:55.319Z,79.65
2023-05-19T02:11:31.418Z,79.18
2023-05-19T02:14:02.894Z,79.73
2023-05-19T02:16:29.667Z,81.83
2023-05-19T02:18:57.320Z,80.96
2023-05-19T02:21:23.917Z,81.32
2023-05-19T02:23:50.732Z,80.97
2023-05-19T02:26:17.422Z,81.60
2023-05-19T02:28:43.998Z,79.83
2023-05-19T02:31:10.567Z,80.42
2023-05-19T02:33:37.601Z,80.74
2023-05-19T02:36:04.637Z,81.55
2023-05-19T02:38:31.674Z,82.71
2023-05-19T02:40:58.682Z,81.09
2023-05-19T02:43:25.460Z,80.91
2023-05-19T02:45:52.030Z,82.22
2023-05-19T02:48:18.649Z,79.68
2023-05-19T02:50:45.298Z,81.58
2023-05-19T02:53:11.936Z,82.16
2023-05-19T02:55:38.585Z,81.34
2023-05-19T02:58:05.356Z,83.62
2023-05-19T03:00:32.265Z,81.40
2023-05-19T03:03:02.695Z,83.61
2023-05-19T03:05:30.444Z,83.62
2023-05-19T03:07:57.084Z,84.08
2023-05-19T03:10:23.710Z,82.97
2023-05-19T03:12:50.992Z,83.72
2023-05-19T03:15:18.822Z,83.91
2023-05-19T03:17:45.762Z,82.97
2023-05-19T03:20:13.047Z,81.98
2023-05-19T03:22:39.722Z,82.71
2023-05-19T03:25:06.670Z,82.83
2023-05-19T03:27:33.251Z,82.11
2023-05-19T03:29:59.858Z,84.28
2023-05-19T03:32:26.765Z,83.53
2023-05-19T03:34:53.453Z,83.22
2023-05-19T03:37:20.074Z,83.57
2023-05-19T03:39:46.719Z,83.79
2023-05-19T03:42:13.428Z,85.52
2023-05-19T03:44:40.113Z,83.42
2023-05-19T03:47:06.922Z,85.06
2023-05-19T03:49:33.621Z,85.30
2023-05-19T03:52:00.253Z,86.03
2023-05-19T03:54:27.524Z,85.02
2023-05-19T03:56:54.405Z,87.16
2023-05-19T03:59:21.114Z,86.71
2023-05-19T04:01:47.786Z,87.79
2023-05-19T04:04:14.408Z,86.59
2023-05-19T04:06:41.093Z,86.14
2023-05-19T04:09:14.857Z,84.79
2023-05-19T04:11:42.873Z,84.91
2023-05-19T04:14:11.853Z,86.27
2023-05-19T04:16:38.722Z,86.80
2023-05-19T04:19:05.822Z,86.89
2023-05-19T04:21:32.532Z,86.59
2023-05-19T04:24:00.150Z,85.25
2023-05-19T04:26:31.029Z,86.13
2023-05-19T04:28:57.834Z,86.68
2023-05-19T04:31:24.778Z,85.74
2023-05-19T04:33:53.501Z,85.92
2023-05-19T04:36:21.748Z,85.38
2023-05-19T04:38:48.551Z,85.63
2023-05-19T04:41:16.500Z,85.19
2023-05-19T04:43:44.767Z,85.22
2023-05-19T04:46:13.725Z,86.27
2023-05-19T04:48:41.191Z,88.41
2023-05-19T04:51:07.994Z,86.47
2023-05-19T04:53:34.926Z,87.71
2023-05-19T04:56:02.133Z,89.75
2023-05-19T04:58:28.686Z,89.55
2023-05-19T05:00:58.732Z,90.52
2023-05-19T05:03:26.432Z,89.85
2023-05-19T05:05:53.398Z,90.67
2023-05-19T05:08:23.434Z,89.90
2023-05-19T05:10:52.524Z,91.18
2023-05-19T05:13:22.796Z,91.54
2023-05-19T05:15:49.851Z,92.84
2023-05-19T05:18:16.765Z,92.04
2023-05-19T05:20:44.189Z,90.37
2023-05-19T05:23:14.649Z,91.47
2023-05-19T05:25:42.376Z,84.64
2023-05-19T05:28:09.034Z,85.49
2023-05-19T05:30:35.797Z,85.37
2023-05-19T05:33:02.584Z,85.87
2023-05-19T05:35:29.413Z,84.34
2023-05-19T05:37:56.531Z,84.35
2023-05-19T05:40:23.246Z,80.64
2023-05-19T05:42:49.996Z,80.23
2023-05-19T05:45:16.949Z,80.50
2023-05-19T05:47:43.818Z,78.32
2023-05-19T05:50:11.078Z,76.01
2023-05-19T05:52:39.405Z,76.77
2023-05-19T05:55:06.920Z,76.35
2023-05-19T05:57:35.414Z,77.46
2023-05-19T06:00:02.429Z,73.48
2023-05-19T06:02:29.984Z,77.26
2023-05-19T06:04:56.995Z,71.35
2023-05-19T06:07:24.476Z,72.84
2023-05-19T06:09:51.238Z,71.87
2023-05-19T06:12:18.100Z,69.40
2023-05-19T06:14:44.759Z,70.41
2023-05-19T06:17:11.447Z,70.50
2023-05-19T06:19:38.051Z,68.67
2023-05-19T06:22:04.744Z,69.46
2023-05-19T06:24:31.372Z,68.69
2023-05-19T06:26:57.993Z,68.48
2023-05-19T06:29:24.639Z,68.20
2023-05-19T06:31:51.579Z,69.99
2023-05-19T06:34:18.412Z,69.89
2023-05-19T06:36:45.184Z,68.97
2023-05-19T06:39:11.893Z,66.04
2023-05-19T06:41:38.610Z,68.36
2023-05-19T06:44:07.979Z,66.11
2023-05-19T06:46:34.898Z,64.32
2023-05-19T06:49:01.736Z,67.33
2023-05-19T06:51:28.660Z,64.68
2023-05-19T06:53:55.617Z,62.09
2023-05-19T06:56:22.969Z,63.45
2023-05-19T06:58:49.902Z,62.90
2023-05-19T07:01:16.655Z,64.28
2023-05-19T07:03:43.406Z,65.72
2023-05-19T07:06:10.208Z,66.68
2023-05-19T07:08:37.309Z,60.22
2023-05-19T07:11:04.235Z,63.82
2023-05-19T07:13:32.901Z,64.03
2023-05-19T07:15:59.536Z,68.51
2023-05-19T07:18:26.248Z,65.82
2023-05-19T07:20:53.798Z,56.02
2023-05-19T07:23:20.560Z,55.17
2023-05-19T07:25:47.214Z,59.45
2023-05-19T07:28:13.907Z,60.33
2023-05-19T07:30:40.901Z,54.51
2023-05-19T07:33:08.394Z,60.03
2023-05-19T07:35:35.166Z,56.62
2023-05-19T07:38:02.330Z,58.50
2023-05-19T07:40:28.992Z,58.21
2023-05-19T07:42:55.861Z,56.61
2023-05-19T07:45:22.621Z,57.75
2023-05-19T07:47:49.467Z,53.91
2023-05-19T07:50:16.478Z,51.86
2023-05-19T07:52:43.112Z,57.40
2023-05-19T07:55:09.735Z,48.91
2023-05-19T07:57:36.562Z,51.22
2023-05-19T08:00:07.756Z,54.31
2023-05-19T08:02:34.467Z,52.85
2023-05-19T08:05:01.290Z,52.36
2023-05-19T08:07:27.868Z,50.41
2023-05-19T08:09:54.467Z,50.44
2023-05-19T08:12:21.094Z,51.87
2023-05-19T08:14:47.696Z,56.89
2023-05-19T08:17:14.352Z,54.52
2023-05-19T08:19:41.005Z,50.21
2023-05-19T08:22:07.617Z,48.69
2023-05-19T08:24:34.522Z,51.00
2023-05-19T08:27:01.441Z,51.79
2023-05-19T08:29:28.070Z,48.16
2023-05-19T08:31:54.764Z,49.70
2023-05-19T08:34:22.340Z,45.81
2023-05-19T08:36:49.016Z,45.80
2023-05-19T08:39:17.656Z,44.17
2023-05-19T08:41:44.581Z,47.08
2023-05-19T08:44:11.647Z,49.57
2023-05-19T08:46:38.495Z,49.39
2023-05-19T08:49:13.064Z,52.41
2023-05-19T08:52:37.980Z,48.87
2023-05-19T08:55:09.833Z,42.97
2023-05-19T08:57:38.304Z,46.81
2023-05-19T09:00:11.854Z,50.11
2023-05-19T09:02:50.429Z,52.36
2023-05-19T09:05:26.819Z,49.86
2023-05-19T09:07:53.469Z,42.69
2023-05-19T09:10:20.103Z,45.96
2023-05-19T09:12:47.869Z,41.76
2023-05-19T09:15:18.790Z,40.72
2023-05-19T09:17:45.941Z,41.18
2023-05-19T09:20:13.091Z,46.41
2023-05-19T09:22:45.307Z,38.52
2023-05-19T09:25:22.660Z,40.65
2023-05-19T09:27:50.150Z,39.22
2023-05-19T09:30:17.971Z,37.98
2023-05-19T09:32:49.390Z,38.89
2023-05-19T09:35:20.784Z,40.34
2023-05-19T09:37:47.450Z,42.80
2023-05-19T09:40:16.061Z,43.01
2023-05-19T09:42:44.155Z,40.48
2023-05-19T09:45:11.370Z,41.94
2023-05-19T09:47:42.052Z,43.28
2023-05-19T09:50:10.822Z,41.02
2023-05-19T09:52:39.680Z,43.52
2023-05-19T09:55:09.962Z,42.54
2023-05-19T09:57:40.826Z,44.67
2023-05-19T10:00:20.813Z,40.16
2023-05-19T10:02:50.320Z,44.02
2023-05-19T10:05:20.260Z,40.12
2023-05-19T10:07:54.662Z,38.15
2023-05-19T10:12:49.827Z,38.11
2023-05-19T10:15:17.957Z,45.36
2023-05-19T10:17:45.647Z,39.85
2023-05-19T10:20:14.424Z,40.93
2023-05-19T10:22:42.754Z,40.88
2023-05-19T10:25:11.243Z,41.19
2023-05-19T10:27:44.189Z,41.35
2023-05-19T10:30:24.083Z,36.16
2023-05-19T10:32:52.069Z,37.29
2023-05-19T10:35:54.196Z,36.72
2023-05-19T10:38:48.353Z,35.22
2023-05-19T10:41:53.766Z,41.50
2023-05-19T10:44:35.088Z,36.73
2023-05-19T10:47:01.876Z,36.89
2023-05-19T10:49:28.917Z,37.59
2023-05-19T10:51:58.889Z,38.80
2023-05-19T10:54:47.359Z,36.73
2023-05-19T10:57:33.318Z,40.31
2023-05-19T11:00:11.243Z,48.59
2023-05-19T11:02:41.819Z,39.94
2023-05-19T11:05:13.101Z,47.42
2023-05-19T11:07:43.513Z,36.51
2023-05-19T11:10:11.355Z,42.95
2023-05-19T11:12:46.148Z,35.32
2023-05-19T11:15:15.001Z,37.76
2023-05-19T11:17:43.128Z,36.30
2023-05-19T11:20:26.958Z,36.90
2023-05-19T11:23:18.057Z,38.19
2023-05-19T11:25:49.628Z,34.47
2023-05-19T11:28:19.526Z,37.22
2023-05-19T11:30:50.822Z,41.54
2023-05-19T11:33:21.007Z,34.72
2023-05-19T11:35:49.909Z,42.18
2023-05-19T11:38:20.933Z,34.70
2023-05-19T11:40:49.891Z,39.78
2023-05-19T11:43:16.752Z,38.52
2023-05-19T11:45:43.840Z,33.00
2023-05-19T11:48:15.959Z,34.60
2023-05-19T11:50:44.102Z,34.22
2023-05-19T11:53:14.318Z,34.62
2023-05-19T11:55:48.236Z,37.27
2023-05-19T11:58:15.902Z,39.09
2023-05-19T12:00:46.066Z,34.87
2023-05-19T12:03:13.365Z,37.21
2023-05-19T12:05:45.365Z,40.27
2023-05-19T12:08:12.751Z,37.24
2023-05-19T12:10:40.068Z,39.53
2023-05-19T12:13:10.705Z,39.13
2023-05-19T12:15:38.049Z,35.70
2023-05-19T12:18:05.050Z,33.12
2023-05-19T12:20:32.710Z,34.08
2023-05-19T12:23:01.146Z,39.47
2023-05-19T12:25:29.314Z,34.03
2023-05-19T12:28:03.250Z,40.49
2023-05-19T12:30:31.291Z,36.34
2023-05-19T12:32:58.911Z,35.21
2023-05-19T12:35:32.165Z,40.18
2023-05-19T12:38:03.633Z,34.92
2023-05-19T12:40:30.513Z,32.43
2023-05-19T12:42:59.354Z,36.08
2023-05-19T12:45:28.257Z,37.43
2023-05-19T12:47:55.430Z,33.41
2023-05-19T12:50:22.185Z,34.11
2023-05-19T12:52:53.310Z,35.71
2023-05-19T12:55:21.036Z,37.21
2023-05-19T12:57:54.785Z,37.26
2023-05-19T13:00:25.649Z,36.13
2023-05-19T13:03:05.435Z,36.03
2023-05-19T13:05:38.412Z,38.89
2023-05-19T13:08:10.427Z,40.17
2023-05-19T13:10:39.103Z,35.48
2023-05-19T13:13:06.806Z,35.92
2023-05-19T13:15:35.422Z,34.56
2023-05-19T13:18:07.381Z,36.18
2023-05-19T13:20:35.305Z,35.99
2023-05-19T13:23:02.574Z,37.24
2023-05-19T13:25:29.422Z,37.36
2023-05-19T13:27:56.787Z,39.64
2023-05-19T13:30:24.121Z,36.46
2023-05-19T13:32:52.546Z,36.92
2023-05-19T13:35:19.803Z,38.77
2023-05-19T13:37:46.507Z,38.15
2023-05-19T13:40:13.546Z,42.24
2023-05-19T13:42:40.963Z,40.15
2023-05-19T13:45:08.305Z,39.48
2023-05-19T13:47:35.010Z,35.91
2023-05-19T13:50:03.036Z,38.00
2023-05-19T13:52:30.467Z,37.21
2023-05-19T13:54:57.646Z,34.51
2023-05-19T13:57:25.549Z,36.25
2023-05-19T14:00:01.677Z,35.97
2023-05-19T14:02:30.107Z,36.63
2023-05-19T14:04:57.641Z,37.94
2023-05-19T14:07:24.414Z,37.41
2023-05-19T14:09:52.458Z,36.50
2023-05-19T14:12:21.555Z,38.74
2023-05-19T14:14:50.203Z,40.06
2023-05-19T14:17:16.967Z,38.20
2023-05-19T14:19:43.646Z,39.38
2023-05-19T14:22:10.406Z,36.15
2023-05-19T14:24:37.263Z,37.41
2023-05-19T14:27:04.121Z,37.56
2023-05-19T14:29:34.045Z,39.59
2023-05-19T14:32:01.140Z,38.49
2023-05-19T14:34:28.583Z,41.41
2023-05-19T14:36:55.315Z,40.21
2023-05-19T14:39:22.379Z,39.16
2023-05-19T14:41:51.023Z,39.83
2023-05-19T14:44:17.624Z,43.27
2023-05-19T14:46:44.972Z,41.08
2023-05-19T14:49:11.786Z,39.78
2023-05-19T14:51:38.483Z,40.93
2023-05-19T14:54:05.092Z,42.64
2023-05-19T14:56:31.796Z,39.39
2023-05-19T14:58:58.991Z,40.78
2023-05-19T15:01:25.947Z,40.02
2023-05-19T15:03:52.950Z,40.50
2023-05-19T15:06:19.909Z,43.44
2023-05-19T15:08:46.636Z,41.25
2023-05-19T15:11:14.133Z,38.26
2023-05-19T15:13:40.790Z,39.19
2023-05-19T15:16:17.572Z,42.36
2023-05-19T15:18:45.030Z,42.51
2023-05-19T15:21:11.825Z,40.53
2023-05-19T15:23:38.473Z,40.48
2023-05-19T15:26:05.772Z,40.76
2023-05-19T15:28:33.576Z,39.88
2023-05-19T15:31:00.253Z,39.24
2023-05-19T15:33:27.006Z,42.18
2023-05-19T15:35:54.275Z,40.04
2023-05-19T15:38:20.930Z,41.32
2023-05-19T15:40:47.858Z,42.15
2023-05-19T15:43:14.582Z,42.17
2023-05-19T15:45:41.262Z,42.59
2023-05-19T15:48:08.523Z,42.19
2023-05-19T15:50:36.053Z,41.78
2023-05-19T15:53:03.091Z,42.07
2023-05-19T15:55:29.824Z,44.70
2023-05-19T15:57:56.469Z,41.95
2023-05-19T16:00:23.825Z,44.19
2023-05-19T16:02:50.713Z,43.15
2023-05-19T16:05:17.872Z,44.48
2023-05-19T16:07:45.053Z,43.90
2023-05-19T16:10:11.748Z,44.34
2023-05-19T16:12:38.328Z,43.41
2023-05-19T16:15:05.376Z,44.34
2023-05-19T16:17:32.153Z,44.92
2023-05-19T16:19:58.829Z,44.81
2023-05-19T16:22:25.555Z,44.18
2023-05-19T16:24:52.401Z,45.58
2023-05-19T16:27:19.378Z,45.31
2023-05-19T16:29:46.013Z,45.30
2023-05-19T16:32:13.076Z,46.74
2023-05-19T16:34:39.824Z,45.87
2023-05-19T16:37:06.468Z,45.39
2023-05-19T16:39:33.151Z,45.87
2023-05-19T16:41:59.804Z,47.01
2023-05-19T16:44:26.611Z,46.26
2023-05-19T16:46:53.282Z,47.52
2023-05-19T16:49:19.951Z,47.16
2023-05-19T16:51:48.801Z,47.54
2023-05-19T16:54:15.670Z,48.18
2023-05-19T16:56:42.389Z,48.11
2023-05-19T16:59:09.384Z,49.15
2023-05-19T17:01:36.151Z,48.10
2023-05-19T17:04:03.054Z,48.28
2023-05-19T17:06:29.693Z,48.60
2023-05-19T17:08:56.352Z,48.55
2023-05-19T17:11:23.025Z,48.21
2023-05-19T17:13:49.667Z,49.02
2023-05-19T17:16:16.444Z,50.22
2023-05-19T17:18:43.911Z,49.11
2023-05-19T17:21:10.724Z,49.61
2023-05-19T17:23:38.291Z,50.15
2023-05-19T17:26:05.207Z,51.00
2023-05-19T17:28:32.404Z,49.60
2023-05-19T17:30:59.222Z,49.97
2023-05-19T17:33:25.953Z,50.72
2023-05-19T17:35:52.690Z,50.08
2023-05-19T17:38:19.330Z,50.46
2023-05-19T17:40:47.516Z,51.11
2023-05-19T17:43:14.116Z,50.89
2023-05-19T17:45:41.101Z,50.91
2023-05-19T17:48:07.823Z,51.05
2023-05-19T17:50:34.679Z,51.64
2023-05-19T17:53:01.732Z,52.25
2023-05-19T17:55:30.998Z,52.38
2023-05-19T17:57:57.963Z,52.95
2023-05-19T18:00:25.359Z,51.78
2023-05-19T18:02:52.898Z,53.39
2023-05-19T18:05:20.120Z,52.24
2023-05-19T18:07:48.079Z,54.44
2023-05-19T18:10:16.856Z,52.41
2023-05-19T18:12:43.466Z,54.65
2023-05-19T18:15:10.621Z,54.09
2023-05-19T18:17:37.276Z,53.71
2023-05-19T18:20:04.173Z,55.07
2023-05-19T18:22:30.885Z,56.88
2023-05-19T18:24:57.691Z,54.98
2023-05-19T18:27:24.319Z,55.24
2023-05-19T18:29:51.363Z,56.34
2023-05-19T18:32:17.995Z,56.56
2023-05-19T18:34:44.644Z,56.21
2023-05-19T18:37:11.343Z,57.50
2023-05-19T18:39:38.082Z,58.24
2023-05-19T18:42:04.847Z,58.56
2023-05-19T18:44:31.784Z,58.40
2023-05-19T18:46:58.386Z,59.15
2023-05-19T18:49:25.184Z,58.88
2023-05-19T18:51:52.191Z,58.82
2023-05-19T18:54:20.374Z,59.11
2023-05-19T18:56:47.110Z,59.12
2023-05-19T18:59:13.781Z,59.24
2023-05-19T19:01:40.611Z,60.76
2023-05-19T19:04:07.393Z,59.10
2023-05-19T19:06:34.185Z,59.53
2023-05-19T19:09:00.776Z,60.60
2023-05-19T19:11:27.425Z,60.83
2023-05-19T19:13:55.988Z,59.13
2023-05-19T19:16:22.760Z,62.09
2023-05-19T19:18:49.559Z,60.55
2023-05-19T19:21:16.301Z,59.40
2023-05-19T19:23:42.958Z,59.26
2023-05-19T19:26:09.730Z,59.96
2023-05-19T19:28:37.065Z,60.35
2023-05-19T19:31:03.703Z,61.25
2023-05-19T19:33:30.326Z,62.73
2023-05-19T19:35:57.267Z,63.11
2023-05-19T19:38:23.891Z,62.55
2023-05-19T19:40:53.472Z,62.72
2023-05-19T19:43:20.225Z,63.58
2023-05-19T19:45:46.899Z,62.49
2023-05-19T19:48:13.520Z,63.13
2023-05-19T19:50:40.209Z,64.56
2023-05-19T19:53:08.787Z,65.68
2023-05-19T19:55:35.560Z,64.42
2023-05-19T19:58:02.529Z,65.20
2023-05-19T20:00:29.204Z,65.30
2023-05-19T20:03:04.929Z,67.09
2023-05-19T20:05:32.733Z,66.67
2023-05-19T20:07:59.445Z,68.74
2023-05-19T20:10:26.313Z,68.63
2023-05-19T20:12:53.033Z,70.35
2023-05-19T20:15:19.653Z,71.67
2023-05-19T20:17:46.566Z,70.31
2023-05-19T20:20:13.571Z,67.75
2023-05-19T20:22:40.367Z,65.65
2023-05-19T20:25:07.392Z,65.19
2023-05-19T20:27:34.305Z,64.98
2023-05-19T20:30:00.926Z,64.79
2023-05-19T20:32:27.614Z,64.33
2023-05-19T20:34:54.286Z,63.97
2023-05-19T20:37:22.161Z,63.78
2023-05-19T20:39:48.822Z,64.06
2023-05-19T20:42:15.729Z,65.81
2023-05-19T20:44:42.559Z,65.07
2023-05-19T20:47:09.224Z,64.33
2023-05-19T20:49:36.071Z,65.25
2023-05-19T20:52:02.713Z,65.20
2023-05-19T20:54:29.357Z,65.56
2023-05-19T20:56:56.077Z,65.71
2023-05-19T20:59:22.688Z,65.86
2023-05-19T21:01:49.423Z,66.19
2023-05-19T21:04:16.216Z,67.01
2023-05-19T21:06:42.870Z,68.21
2023-05-19T21:09:10.713Z,67.76
2023-05-19T21:11:37.530Z,68.82
2023-05-19T21:14:04.375Z,71.36
2023-05-19T21:16:31.523Z,68.46
2023-05-19T21:18:58.389Z,67.61
2023-05-19T21:21:25.129Z,68.50
2023-05-19T21:23:52.025Z,68.12
2023-05-19T21:26:18.794Z,67.29
2023-05-19T21:28:45.569Z,67.06
2023-05-19T21:31:12.445Z,68.00
2023-05-19T21:33:39.201Z,66.63
2023-05-19T21:36:06.025Z,67.66
2023-05-19T21:38:32.629Z,66.77
2023-05-19T21:40:59.551Z,66.53
2023-05-19T21:43:26.428Z,68.03
2023-05-19T21:45:53.043Z,67.67
2023-05-19T21:48:19.936Z,68.20
2023-05-19T21:50:46.580Z,67.71
2023-05-19T21:53:13.190Z,65.71
2023-05-19T21:55:39.984Z,65.93
2023-05-19T21:58:06.620Z,65.84
2023-05-19T22:00:33.495Z,65.75
2023-05-19T22:03:00.599Z,66.98
2023-05-19T22:05:30.064Z,64.54
2023-05-19T22:07:56.779Z,65.16
2023-05-19T22:10:23.536Z,63.77
2023-05-19T22:12:50.280Z,64.59
2023-05-19T22:15:16.958Z,63.54
2023-05-19T22:17:43.797Z,64.85
2023-05-19T22:20:10.952Z,61.81
2023-05-19T22:22:37.601Z,62.19
2023-05-19T22:25:04.793Z,62.25
2023-05-19T22:27:31.554Z,63.06
2023-05-19T22:29:59.695Z,63.56
2023-05-19T22:32:26.508Z,63.19
2023-05-19T22:34:53.273Z,62.28
2023-05-19T22:37:21.380Z,61.65
2023-05-19T22:39:48.012Z,62.65
2023-05-19T22:42:14.719Z,62.71
2023-05-19T22:44:41.316Z,62.92
2023-05-19T22:47:13.345Z,62.69
2023-05-19T22:49:40.902Z,62.57
2023-05-19T22:52:10.038Z,62.77
2023-05-19T22:54:37.121Z,62.62
2023-05-19T22:57:04.324Z,63.47
2023-05-19T22:59:30.980Z,60.73
2023-05-19T23:01:57.639Z,60.06
2023-05-19T23:04:24.362Z,61.13
2023-05-19T23:06:51.284Z,60.04
2023-05-19T23:09:18.103Z,61.11
2023-05-19T23:11:45.183Z,61.94
2023-05-19T23:14:11.854Z,62.36
2023-05-19T23:16:38.757Z,62.01
2023-05-19T23:19:05.590Z,61.42
2023-05-19T23:21:32.524Z,61.28
2023-05-19T23:23:59.598Z,61.32
2023-05-19T23:26:26.921Z,62.22
2023-05-19T23:28:53.663Z,63.50
2023-05-19T23:31:20.350Z,61.67
2023-05-19T23:33:47.017Z,63.12
2023-05-19T23:36:14.086Z,64.16
2023-05-19T23:38:40.849Z,63.78
2023-05-19T23:41:07.682Z,62.32
2023-05-19T23:43:34.387Z,61.70
2023-05-19T23:46:01.277Z,62.83
2023-05-19T23:48:31.507Z,60.98
2023-05-19T23:50:58.689Z,62.43
2023-05-19T23:53:25.826Z,60.77
2023-05-19T23:55:52.539Z,62.22
2023-05-19T23:58:19.302Z,63.10
